This is the latest recevied weather packets stored in our database for station/object KD0RIH. If no packets are shown the sender has not sent any weather packets the latest 1 day(s).
| Time | Temp. | Humidity | Pressure | Rain* | Wind** | Luminosity | Snow |
|---|---|---|---|---|---|---|---|
| 1778010874 | 15.56° C | 42% | 1011.9 hPa | 0 mm | 0 m/s | 254 W/m² | - |
| 1778010571 | 16.11° C | 41% | 1012.1 hPa | 0 mm | 0 m/s | 216 W/m² | - |
| 1778010268 | 16.11° C | 40% | 1012.1 hPa | 0 mm | 0 m/s | 316 W/m² | - |
| 1778009968 | 15° C | 45% | 1012 hPa | 0 mm | 0 m/s | 345 W/m² | - |
| 1778009666 | 13.33° C | 48% | 1012.1 hPa | 0 mm | 0 m/s | 399 W/m² | - |
| 1778009364 | 13.33° C | 47% | 1012.1 hPa | 0 mm | 0.45 m/s, 290° | 295 W/m² | - |
| 1778009062 | 15° C | 43% | 1012 hPa | 0 mm | 0.45 m/s, 315° | 256 W/m² | - |
| 1778008759 | 15° C | 45% | 1012.1 hPa | 0 mm | 0 m/s | 301 W/m² | - |
| 1778008458 | 13.89° C | 46% | 1012.3 hPa | 0 mm | 0 m/s | 266 W/m² | - |
| 1778008154 | 15° C | 44% | 1012.3 hPa | 0 mm | 1.34 m/s, 301° | 266 W/m² | - |
| 1778007849 | 15.56° C | 42% | 1012.3 hPa | 0 mm | 0 m/s | 282 W/m² | - |
| 1778007545 | 15° C | 44% | 1012.2 hPa | 0 mm | 0 m/s | 281 W/m² | - |
| 1778007242 | 15° C | 45% | 1012.2 hPa | 0 mm | 0 m/s | 265 W/m² | - |
| 1778006938 | 14.44° C | 48% | 1012.3 hPa | 0 mm | 0 m/s | 304 W/m² | - |
| 1778006635 | 13.89° C | 50% | 1012.3 hPa | 0 mm | 0 m/s | 256 W/m² | - |
| 1778006332 | 13.33° C | 53% | 1012.1 hPa | 0 mm | 0.45 m/s, 305° | 270 W/m² | - |
| 1778006029 | 13.33° C | 52% | 1012 hPa | 0 mm | 0 m/s | 306 W/m² | - |
| 1778005725 | 12.78° C | 54% | 1012.2 hPa | 0 mm | 0 m/s | 297 W/m² | - |
| 1778005422 | 13.33° C | 52% | 1011.9 hPa | 0 mm | 0 m/s | 286 W/m² | - |
| 1778005119 | 13.33° C | 51% | 1012.1 hPa | 0 mm | 0 m/s | 295 W/m² | - |
| 1778004816 | 12.22° C | 57% | 1012 hPa | 0 mm | 0 m/s | 353 W/m² | - |
| 1778004513 | 11.67° C | 54% | 1012.3 hPa | 0 mm | 0 m/s | 281 W/m² | - |
| 1778004209 | 11.67° C | 57% | 1012.4 hPa | 0 mm | 0.89 m/s, 39° | 240 W/m² | - |
| 1778003906 | 11.67° C | 56% | 1012.2 hPa | 0 mm | 0.45 m/s, 279° | 197 W/m² | - |
| 1778003602 | 11.67° C | 56% | 1012.3 hPa | 0 mm | 0.45 m/s, 345° | 191 W/m² | - |
* Rain latest hour (hover to see other rain measurements)
** Current wind speed in m/s (hover to see current wind gust speed)